Time;durP1;ratioP1;P1;durP2;ratioP2;P2;SDS_P1;SDS_P2;PMS_P1;PMS_P2;Temp;Humidity;BMP_temperature;BMP_pressure;BME280_temperature;BME280_humidity;BME280_pressure;Samples;Min_cycle;Max_cycle;Signal;HPM_P1;HPM_P2
2022/11/07 00:01:21;;;;;;;21.50;12.70;;;;;;;4.30;80.83;100279.16;125122;1303;98035;-78
2022/11/07 00:04:29;;;;;;;25.00;14.00;;;;;;;4.40;81.42;100274.77;125193;1293;99071;-78
2022/11/07 00:07:34;;;;;;;28.70;16.60;;;;;;;4.54;81.83;100280.06;125169;1307;98595;-79
2022/11/07 00:10:40;;;;;;;32.40;17.90;;;;;;;4.67;82.00;100281.55;125109;1302;98715;-79
2022/11/07 00:13:45;;;;;;;31.70;17.70;;;;;;;4.78;82.24;100282.15;125162;1302;99200;-79
2022/11/07 00:16:51;;;;;;;26.00;14.70;;;;;;;4.89;82.46;100276.44;125204;1302;98105;-78
2022/11/07 00:19:56;;;;;;;29.80;17.10;;;;;;;4.95;82.79;100277.55;125189;1302;98025;-78
2022/11/07 00:23:02;;;;;;;41.60;23.30;;;;;;;5.00;82.68;100279.30;125117;1297;97993;-78
2022/11/07 00:26:10;;;;;;;25.10;14.10;;;;;;;5.07;83.16;100281.40;125118;1302;99341;-78
2022/11/07 00:29:17;;;;;;;23.60;14.80;;;;;;;5.18;83.26;100280.59;125185;1292;98768;-80
2022/11/07 00:32:22;;;;;;;24.30;14.60;;;;;;;5.25;83.21;100279.48;125195;1302;99151;-81
2022/11/07 00:35:28;;;;;;;25.90;16.40;;;;;;;5.27;83.24;100273.70;125213;1302;98032;-80
2022/11/07 00:38:33;;;;;;;24.60;15.60;;;;;;;5.25;83.22;100277.05;125122;1308;99179;-80
2022/11/07 00:41:39;;;;;;;25.50;15.80;;;;;;;5.19;83.46;100273.92;125385;1302;99252;-81
2022/11/07 00:44:44;;;;;;;27.40;14.10;;;;;;;5.15;83.47;100279.00;125340;1300;98076;-81
2022/11/07 00:47:50;;;;;;;24.40;12.80;;;;;;;5.10;83.45;100279.75;125340;1295;99187;-80
2022/11/07 00:50:56;;;;;;;21.20;12.50;;;;;;;5.04;83.40;100274.55;125160;1296;99188;-79
2022/11/07 00:54:02;;;;;;;20.00;12.60;;;;;;;4.98;83.24;100268.12;125126;1296;98887;-79
2022/11/07 00:57:08;;;;;;;22.70;13.40;;;;;;;4.94;83.45;100264.19;125132;1302;97994;-81
2022/11/07 01:00:15;;;;;;;24.20;14.60;;;;;;;4.93;83.53;100258.66;125235;1308;98026;-81
2022/11/07 01:06:45;;;;;;;23.70;15.00;;;;;;;4.83;83.47;100260.62;125272;1302;99182;-81
2022/11/07 01:09:50;;;;;;;27.70;16.20;;;;;;;4.76;83.41;100256.27;125137;1302;98162;-81
2022/11/07 01:12:56;;;;;;;29.50;20.20;;;;;;;4.69;83.30;100257.30;125221;1292;98380;-79
2022/11/07 01:16:01;;;;;;;24.40;12.90;;;;;;;4.65;83.46;100257.62;125097;1316;99196;-79
2022/11/07 01:19:07;;;;;;;25.20;15.50;;;;;;;4.62;83.41;100259.06;125099;1300;99100;-79
2022/11/07 01:22:13;;;;;;;25.30;15.50;;;;;;;4.61;83.60;100259.27;125076;1296;98027;-79
2022/11/07 01:25:19;;;;;;;30.30;19.20;;;;;;;4.66;83.73;100258.41;125213;1296;99173;-77
2022/11/07 01:28:24;;;;;;;26.30;17.20;;;;;;;4.68;83.76;100254.00;125219;1296;98672;-80
2022/11/07 01:31:31;;;;;;;21.00;13.80;;;;;;;4.72;83.97;100246.67;125244;1304;99096;-79
2022/11/07 01:34:36;;;;;;;24.80;13.30;;;;;;;4.76;83.99;100246.05;125100;1296;98697;-80
2022/11/07 01:37:41;;;;;;;21.30;12.90;;;;;;;4.81;84.23;100235.60;125175;1303;99101;-80
2022/11/07 01:44:49;;;;;;;18.60;11.40;;;;;;;5.01;84.90;100228.22;125010;1308;98135;-80
2022/11/07 01:47:58;;;;;;;18.10;11.30;;;;;;;5.11;84.82;100215.33;125355;1305;98009;-79
2022/11/07 01:51:04;;;;;;;24.50;16.60;;;;;;;5.16;84.92;100207.58;125181;1297;98997;-78
2022/11/07 01:54:12;;;;;;;20.60;13.40;;;;;;;5.16;84.79;100203.31;125185;1308;98014;-80
2022/11/07 01:57:23;;;;;;;24.20;12.80;;;;;;;5.13;84.89;100199.27;125210;1296;98551;-80
2022/11/07 02:00:30;;;;;;;19.60;11.60;;;;;;;5.15;85.03;100198.81;125172;1302;99052;-80
2022/11/07 02:03:36;;;;;;;17.30;9.90;;;;;;;5.19;84.98;100195.13;125207;1307;98124;-80
2022/11/07 02:06:45;;;;;;;19.70;11.10;;;;;;;5.27;84.79;100191.49;125185;1296;99177;-79
2022/11/07 02:09:52;;;;;;;21.80;12.70;;;;;;;5.35;85.01;100187.70;125236;1303;98100;-79
2022/11/07 02:13:00;;;;;;;20.50;11.80;;;;;;;5.44;85.44;100180.44;125264;1306;98030;-79
2022/11/07 02:16:06;;;;;;;20.90;12.80;;;;;;;5.53;85.58;100181.88;125193;1302;99202;-79
2022/11/07 02:19:21;;;;;;;19.80;11.40;;;;;;;5.59;85.74;100175.44;125029;1289;99156;-81
2022/11/07 02:22:35;;;;;;;19.40;10.70;;;;;;;5.64;85.73;100172.70;125193;1303;98708;-80
2022/11/07 02:25:41;;;;;;;18.60;11.40;;;;;;;5.72;85.98;100171.71;125260;1293;98019;-80
2022/11/07 02:28:48;;;;;;;20.50;12.70;;;;;;;5.81;85.96;100162.27;125216;1289;98133;-80
2022/11/07 02:32:04;;;;;;;20.70;13.30;;;;;;;5.92;86.32;100155.96;125168;1304;99103;-80
2022/11/07 02:35:45;;;;;;;22.00;13.50;;;;;;;6.02;86.62;100160.08;125234;1297;98764;-80
2022/11/07 02:38:56;;;;;;;20.90;12.10;;;;;;;6.11;86.54;100147.92;125156;1303;98105;-79
2022/11/07 02:42:02;;;;;;;24.30;11.90;;;;;;;6.17;86.88;100143.16;125171;1296;98090;-78
2022/11/07 02:45:10;;;;;;;23.50;13.20;;;;;;;6.27;87.27;100140.23;124976;1296;98107;-79
2022/11/07 02:48:15;;;;;;;23.70;13.70;;;;;;;6.37;87.41;100137.42;125192;1310;98328;-79
2022/11/07 02:51:21;;;;;;;23.90;13.40;;;;;;;6.46;87.58;100139.30;125178;1309;99098;-79
2022/11/07 02:54:26;;;;;;;26.40;14.60;;;;;;;6.54;87.68;100142.39;125154;1306;98794;-80
2022/11/07 02:57:32;;;;;;;25.40;12.70;;;;;;;6.58;87.62;100137.06;125292;1309;98023;-81
2022/11/07 03:00:37;;;;;;;25.30;13.50;;;;;;;6.63;87.58;100130.30;125323;1296;98355;-81
2022/11/07 03:03:46;;;;;;;26.70;14.50;;;;;;;6.69;87.64;100131.34;125201;1303;99050;-79
2022/11/07 03:06:51;;;;;;;25.50;15.60;;;;;;;6.77;87.79;100126.17;125293;1303;98664;-79
2022/11/07 03:09:57;;;;;;;26.10;14.20;;;;;;;6.83;88.21;100127.37;125257;1296;98683;-80
2022/11/07 03:13:03;;;;;;;25.10;15.00;;;;;;;6.86;88.03;100136.45;125170;1297;98045;-80
2022/11/07 03:16:11;;;;;;;23.80;12.90;;;;;;;6.88;87.84;100138.42;125581;1296;98096;-78
2022/11/07 03:19:16;;;;;;;23.80;13.00;;;;;;;6.91;88.28;100134.10;125225;1296;98671;-80
2022/11/07 03:22:22;;;;;;;26.00;14.10;;;;;;;6.95;87.94;100135.38;125272;1302;99063;-79
2022/11/07 03:25:27;;;;;;;26.70;15.00;;;;;;;6.99;88.28;100127.89;125308;1304;99192;-77
2022/11/07 03:28:33;;;;;;;27.90;15.90;;;;;;;7.03;88.20;100130.58;125281;1304;98134;-80
2022/11/07 03:31:38;;;;;;;28.50;16.10;;;;;;;7.05;88.34;100131.98;125322;1295;98263;-78
2022/11/07 03:34:44;;;;;;;24.40;12.90;;;;;;;7.05;88.41;100135.38;125106;1303;99182;-78
2022/11/07 03:37:50;;;;;;;28.00;13.00;;;;;;;7.04;87.99;100131.19;125260;1302;99194;-79
2022/11/07 03:40:56;;;;;;;31.70;15.90;;;;;;;7.04;88.29;100129.20;125408;1295;98782;-79
2022/11/07 03:44:01;;;;;;;29.60;16.20;;;;;;;7.07;88.34;100128.95;125254;1296;98353;-77
2022/11/07 03:47:07;;;;;;;28.70;16.40;;;;;;;7.11;88.36;100124.72;125297;1302;99125;-77
2022/11/07 03:50:14;;;;;;;27.40;16.00;;;;;;;7.15;88.42;100120.85;125363;1296;99144;-78
2022/11/07 03:53:20;;;;;;;27.40;13.40;;;;;;;7.16;88.21;100120.41;125322;1293;98001;-77
2022/11/07 03:56:25;;;;;;;28.10;14.70;;;;;;;7.15;88.26;100121.61;125143;1296;98130;-77
2022/11/07 03:59:31;;;;;;;28.20;15.50;;;;;;;7.15;88.43;100118.39;125087;1303;98510;-78
2022/11/07 04:02:37;;;;;;;29.40;16.40;;;;;;;7.18;88.48;100119.16;125396;1296;98000;-79
2022/11/07 04:05:42;;;;;;;26.80;15.80;;;;;;;7.21;88.60;100121.91;125152;1303;99214;-79
2022/11/07 04:08:48;;;;;;;31.20;16.90;;;;;;;7.23;88.61;100122.86;125156;1298;98453;-78
2022/11/07 04:18:40;;;;;;;29.90;15.40;;;;;;;7.26;88.93;100109.10;125153;1303;99087;-79
2022/11/07 04:21:45;;;;;;;27.80;16.10;;;;;;;7.31;88.82;100106.41;125227;1289;98689;-79
2022/11/07 04:24:51;;;;;;;29.40;15.70;;;;;;;7.33;88.90;100114.88;125175;1303;98886;-79
2022/11/07 04:27:56;;;;;;;32.70;15.90;;;;;;;7.35;88.88;100101.98;125222;1296;101637;-80
2022/11/07 04:31:02;;;;;;;31.30;16.80;;;;;;;7.35;88.99;100101.10;125118;1297;98094;-80
2022/11/07 04:34:07;;;;;;;28.10;14.60;;;;;;;7.33;88.94;100102.35;125032;1302;98027;-79
2022/11/07 04:37:12;;;;;;;26.40;14.00;;;;;;;7.31;88.99;100092.42;125088;1297;98354;-80
2022/11/07 04:40:18;;;;;;;26.70;14.70;;;;;;;7.32;89.00;100082.55;125131;1303;98768;-79
2022/11/07 04:43:25;;;;;;;27.20;15.80;;;;;;;7.36;88.97;100079.75;125164;1303;99109;-79
2022/11/07 04:46:30;;;;;;;25.50;15.50;;;;;;;7.39;89.08;100069.42;125140;1297;99233;-78
2022/11/07 04:49:36;;;;;;;26.30;16.20;;;;;;;7.40;89.19;100058.51;125068;1303;98121;-80
2022/11/07 04:52:42;;;;;;;24.90;15.20;;;;;;;7.38;89.05;100058.16;125200;1303;99068;-79
2022/11/07 04:55:47;;;;;;;27.20;14.90;;;;;;;7.36;89.18;100061.48;125262;1293;98028;-81
2022/11/07 04:58:53;;;;;;;25.50;15.60;;;;;;;7.38;89.38;100060.79;125171;1296;99170;-78
2022/11/07 05:01:58;;;;;;;25.50;15.90;;;;;;;7.42;89.27;100066.47;125149;1293;99167;-78
2022/11/07 05:05:04;;;;;;;27.50;16.70;;;;;;;7.45;89.43;100066.02;125183;1297;98138;-78
2022/11/07 05:08:10;;;;;;;26.70;16.10;;;;;;;7.47;89.28;100062.30;125196;1300;98089;-78
2022/11/07 05:11:15;;;;;;;24.40;14.00;;;;;;;7.47;89.45;100063.13;125041;1303;99135;-78
2022/11/07 05:14:20;;;;;;;24.10;13.40;;;;;;;7.48;89.52;100065.52;125246;1303;99061;-81
2022/11/07 05:17:27;;;;;;;24.70;15.20;;;;;;;7.51;89.44;100069.62;125247;1293;99297;-79
2022/11/07 05:20:34;;;;;;;24.50;15.20;;;;;;;7.54;89.56;100070.34;125180;1297;98657;-79
2022/11/07 05:23:39;;;;;;;26.10;16.10;;;;;;;7.57;89.38;100070.48;125174;1296;99146;-80
2022/11/07 05:26:45;;;;;;;22.80;15.00;;;;;;;7.58;89.70;100064.36;125118;1303;98136;-80
2022/11/07 05:29:50;;;;;;;21.20;13.40;;;;;;;7.58;89.48;100065.05;125180;1297;99184;-80
2022/11/07 05:32:56;;;;;;;23.70;14.30;;;;;;;7.58;89.55;100063.28;125172;1303;98813;-80
2022/11/07 05:36:12;;;;;;;24.00;14.90;;;;;;;7.59;89.50;100065.48;125122;1303;99129;-78
2022/11/07 05:39:17;;;;;;;27.70;16.60;;;;;;;7.62;89.65;100067.73;125264;1303;98772;-79
2022/11/07 05:42:22;;;;;;;24.30;16.30;;;;;;;7.63;89.71;100068.11;125287;1302;98463;-77
2022/11/07 05:45:28;;;;;;;27.10;16.10;;;;;;;7.63;89.54;100072.20;125350;1302;98015;-80
2022/11/07 05:48:34;;;;;;;22.40;14.10;;;;;;;7.62;89.76;100068.02;125190;1295;98124;-81
2022/11/07 05:51:40;;;;;;;23.20;13.40;;;;;;;7.61;89.82;100071.08;125342;1297;98665;-80
2022/11/07 05:54:46;;;;;;;23.20;14.60;;;;;;;7.63;89.83;100066.17;125780;1297;98012;-80
2022/11/07 05:57:52;;;;;;;26.90;17.00;;;;;;;7.67;89.96;100066.00;125215;1303;98791;-80
2022/11/07 06:01:02;;;;;;;28.70;17.20;;;;;;;7.71;89.89;100070.94;125283;1296;98168;-80
2022/11/07 06:04:07;;;;;;;30.40;18.20;;;;;;;7.73;90.07;100070.55;125201;1312;98014;-80
2022/11/07 06:07:13;;;;;;;26.90;15.40;;;;;;;7.74;90.02;100073.52;125117;1296;99085;-81
2022/11/07 06:10:19;;;;;;;25.40;15.10;;;;;;;7.75;90.12;100081.38;125281;1295;98101;-80
2022/11/07 06:13:24;;;;;;;27.30;16.80;;;;;;;7.79;90.04;100085.48;125260;1302;99223;-80
2022/11/07 06:16:29;;;;;;;26.60;16.70;;;;;;;7.83;90.17;100084.14;125264;1295;98039;-80
2022/11/07 06:19:35;;;;;;;28.80;16.80;;;;;;;7.88;90.23;100081.42;125219;1313;99088;-80
2022/11/07 06:22:40;;;;;;;27.70;17.20;;;;;;;7.93;90.22;100084.88;125077;1306;99058;-80
2022/11/07 06:25:46;;;;;;;27.30;15.10;;;;;;;7.96;90.23;100087.08;125082;1310;99192;-80
2022/11/07 06:28:51;;;;;;;22.50;13.70;;;;;;;7.99;90.30;100091.39;124977;1306;98670;-80
2022/11/07 06:31:57;;;;;;;25.40;15.60;;;;;;;8.05;90.25;100093.52;125100;1297;99146;-80
2022/11/07 06:35:02;;;;;;;26.30;16.50;;;;;;;8.11;90.35;100096.52;124913;1298;98242;-77
2022/11/07 06:38:10;;;;;;;26.40;16.10;;;;;;;8.19;90.53;100091.36;124954;1298;99085;-75
2022/11/07 06:41:15;;;;;;;27.00;16.60;;;;;;;8.24;90.41;100092.83;125008;1305;99062;-73
2022/11/07 06:44:21;;;;;;;24.90;14.20;;;;;;;8.27;90.41;100096.84;124948;1297;99069;-76
2022/11/07 06:47:27;;;;;;;23.50;13.90;;;;;;;8.29;90.43;100097.04;124992;1296;98007;-73
2022/11/07 06:50:32;;;;;;;29.20;16.30;;;;;;;8.32;90.38;100101.31;124903;1304;99208;-75
2022/11/07 06:53:38;;;;;;;37.80;23.60;;;;;;;8.36;90.50;100099.52;125064;1289;98126;-73
2022/11/07 06:56:44;;;;;;;45.00;28.00;;;;;;;8.38;90.41;100099.14;125025;1297;99185;-73
2022/11/07 06:59:49;;;;;;;159.60;90.20;;;;;;;8.41;90.65;100092.39;124928;1306;98817;-73
2022/11/07 07:02:55;;;;;;;380.10;159.30;;;;;;;8.41;90.38;100091.99;124979;1299;98040;-73
2022/11/07 07:06:04;;;;;;;383.90;226.00;;;;;;;8.39;90.52;100094.64;124926;1296;98114;-72
2022/11/07 07:09:09;;;;;;;136.70;96.70;;;;;;;8.41;90.65;100093.39;124965;1296;98934;-74
2022/11/07 07:12:14;;;;;;;114.60;88.70;;;;;;;8.46;90.52;100091.36;124976;1297;98584;-73
2022/11/07 07:15:20;;;;;;;55.60;37.80;;;;;;;8.52;90.64;100088.39;124921;1297;98012;-72
2022/11/07 07:18:26;;;;;;;53.90;39.90;;;;;;;8.55;90.51;100093.55;125004;1289;98022;-73
2022/11/07 07:21:30;;;;;;;;;;;;;;;8.58;90.66;100094.55;125114;1304;98024;-73
2022/11/07 07:24:36;;;;;;;38.00;26.60;;;;;;;8.62;90.50;100093.92;124925;1304;99132;-73
2022/11/07 07:27:41;;;;;;;52.10;37.20;;;;;;;8.68;90.55;100093.26;125296;1296;99151;-74
2022/11/07 07:30:47;;;;;;;32.10;21.50;;;;;;;8.74;90.44;100093.69;125152;1297;98397;-73
2022/11/07 07:33:52;;;;;;;28.40;18.30;;;;;;;8.79;90.41;100089.84;125114;1298;98776;-74
2022/11/07 07:36:58;;;;;;;27.60;18.30;;;;;;;8.82;90.22;100089.73;124995;1289;99196;-72
2022/11/07 07:40:03;;;;;;;26.40;17.00;;;;;;;8.86;90.63;100087.98;125004;1289;99289;-73
2022/11/07 07:43:09;;;;;;;26.70;16.60;;;;;;;8.90;90.49;100086.85;125024;1296;98778;-74
2022/11/07 07:46:19;;;;;;;23.10;13.80;;;;;;;8.97;90.91;100079.62;124993;1297;99141;-73
2022/11/07 07:49:24;;;;;;;27.40;18.00;;;;;;;9.09;91.12;100079.77;125010;1304;98015;-73
2022/11/07 07:52:30;;;;;;;24.60;15.90;;;;;;;9.20;90.90;100081.89;124944;1289;98922;-73
2022/11/07 07:55:35;;;;;;;44.90;31.30;;;;;;;9.31;91.19;100084.69;124976;1312;99221;-73
2022/11/07 07:58:41;;;;;;;88.90;67.60;;;;;;;9.40;91.03;100085.08;124984;1306;98017;-73
2022/11/07 08:01:46;;;;;;;48.50;36.10;;;;;;;9.45;91.01;100080.31;125027;1296;98007;-73
2022/11/07 08:04:52;;;;;;;48.70;39.20;;;;;;;9.50;90.71;100076.86;125002;1297;98721;-74
2022/11/07 08:07:57;;;;;;;35.00;25.20;;;;;;;9.57;90.81;100076.70;125083;1305;98130;-73
2022/11/07 08:11:04;;;;;;;47.80;39.30;;;;;;;9.66;90.90;100080.93;125044;1299;98034;-73
2022/11/07 08:14:10;;;;;;;36.30;28.40;;;;;;;9.77;91.00;100076.84;124951;1304;98043;-72
2022/11/07 08:17:15;;;;;;;40.10;24.30;;;;;;;9.89;90.93;100075.90;125040;1296;99145;-73
2022/11/07 08:20:23;;;;;;;33.10;21.80;;;;;;;9.96;91.09;100074.00;124939;1305;98070;-72
2022/11/07 08:23:29;;;;;;;29.20;20.50;;;;;;;10.04;90.64;100078.63;125057;1312;98849;-74
2022/11/07 08:26:36;;;;;;;28.30;19.20;;;;;;;10.13;90.67;100081.07;124985;1297;98572;-73
2022/11/07 08:29:42;;;;;;;23.30;16.20;;;;;;;10.21;90.51;100076.48;124996;1312;99154;-73
2022/11/07 08:32:48;;;;;;;21.80;15.80;;;;;;;10.30;90.51;100074.05;124998;1296;99192;-73
2022/11/07 08:35:55;;;;;;;24.20;17.10;;;;;;;10.37;90.34;100070.31;124909;1296;98070;-73
2022/11/07 08:39:01;;;;;;;24.70;16.30;;;;;;;10.43;90.47;100069.52;125031;1296;98798;-73
2022/11/07 08:42:06;;;;;;;30.80;20.00;;;;;;;10.47;90.30;100067.01;124906;1296;98001;-73
2022/11/07 08:45:12;;;;;;;19.50;11.70;;;;;;;10.51;90.06;100071.41;124805;1304;99087;-75
2022/11/07 08:48:18;;;;;;;54.70;40.00;;;;;;;10.56;90.20;100075.67;125081;1296;98080;-72
2022/11/07 08:51:24;;;;;;;27.30;18.00;;;;;;;10.64;89.92;100082.33;125077;1302;98026;-73
2022/11/07 08:54:29;;;;;;;24.40;17.50;;;;;;;10.72;89.93;100082.90;125010;1299;98121;-73
2022/11/07 08:57:35;;;;;;;45.10;35.40;;;;;;;10.77;89.58;100090.24;125004;1299;98041;-73
2022/11/07 09:00:40;;;;;;;33.50;27.00;;;;;;;10.81;89.32;100093.02;124958;1297;99133;-74
2022/11/07 09:03:46;;;;;;;24.80;16.30;;;;;;;10.84;89.34;100091.54;124996;1296;98004;-74
2022/11/07 09:06:51;;;;;;;25.00;15.60;;;;;;;10.87;89.19;100095.86;124871;1302;99182;-71
2022/11/07 09:09:57;;;;;;;86.10;58.30;;;;;;;10.91;89.57;100093.59;125020;1305;98356;-71
2022/11/07 09:13:02;;;;;;;33.50;21.80;;;;;;;10.99;88.98;100086.73;125005;1313;98154;-71
2022/11/07 09:16:08;;;;;;;49.60;41.40;;;;;;;11.06;89.07;100091.87;125046;1297;97930;-73
2022/11/07 09:19:13;;;;;;;44.40;33.60;;;;;;;11.11;88.85;100079.45;124988;1312;98797;-73
2022/11/07 09:22:19;;;;;;;38.70;25.90;;;;;;;11.13;88.31;100079.09;125059;1302;98399;-72
2022/11/07 09:25:25;;;;;;;31.70;20.90;;;;;;;11.13;88.62;100075.45;124944;1289;98041;-72
2022/11/07 09:28:31;;;;;;;23.60;14.50;;;;;;;11.14;88.33;100076.42;124945;1293;98038;-72
2022/11/07 09:31:36;;;;;;;57.30;38.70;;;;;;;11.14;88.35;100077.30;124924;1296;99201;-74
2022/11/07 09:34:43;;;;;;;36.40;26.60;;;;;;;11.17;88.00;100065.08;125001;1297;98089;-74
2022/11/07 09:37:49;;;;;;;33.50;24.10;;;;;;;11.25;87.97;100063.05;124938;1298;98501;-74
2022/11/07 09:41:05;;;;;;;25.30;18.70;;;;;;;11.34;87.99;100062.23;125013;1289;98762;-73
2022/11/07 09:44:36;;;;;;;43.90;27.00;;;;;;;11.39;87.41;100059.91;124953;1297;98018;-73
2022/11/07 09:47:47;;;;;;;24.10;15.10;;;;;;;11.42;87.05;100061.23;125216;1296;99172;-72
2022/11/07 09:50:53;;;;;;;45.40;32.00;;;;;;;11.41;87.06;100065.96;125083;1296;99070;-72
2022/11/07 09:54:08;;;;;;;29.60;18.50;;;;;;;11.42;86.87;100067.27;124933;1298;98130;-76
2022/11/07 09:57:17;;;;;;;22.90;11.80;;;;;;;11.42;86.40;100070.17;125032;1306;99156;-74
2022/11/07 10:00:24;;;;;;;19.60;13.40;;;;;;;11.42;86.47;100067.11;125049;1312;99200;-73
2022/11/07 10:03:30;;;;;;;29.40;15.70;;;;;;;11.48;86.38;100071.32;125254;1299;99078;-72
2022/11/07 10:06:44;;;;;;;22.00;13.10;;;;;;;11.50;86.31;100074.22;125003;1306;99168;-73
2022/11/07 10:09:57;;;;;;;21.40;13.10;;;;;;;11.53;85.91;100076.31;125006;1313;99199;-73
2022/11/07 10:13:22;;;;;;;19.10;14.90;;;;;;;11.52;85.97;100074.63;124952;1320;99078;-73
2022/11/07 10:16:39;;;;;;;18.60;11.40;;;;;;;11.51;85.49;100075.46;124895;1306;98039;-73
2022/11/07 10:20:01;;;;;;;15.50;10.80;;;;;;;11.49;85.77;100072.65;124974;1302;98122;-73
2022/11/07 10:23:28;;;;;;;20.40;13.20;;;;;;;11.49;85.50;100073.60;124959;1296;98658;-73
2022/11/07 10:26:35;;;;;;;26.50;17.90;;;;;;;11.53;85.40;100071.86;124974;1289;99221;-72
2022/11/07 10:29:47;;;;;;;15.80;10.90;;;;;;;11.58;85.13;100073.61;125014;1296;99204;-72
2022/11/07 10:33:03;;;;;;;18.70;14.00;;;;;;;11.65;85.31;100072.25;124989;1296;99185;-74
2022/11/07 10:36:15;;;;;;;17.80;13.90;;;;;;;11.72;84.84;100068.13;124884;1309;98115;-76
2022/11/07 10:39:19;;;;;;;;;;;;;;;11.76;85.00;100067.19;125049;1304;99169;-74
2022/11/07 10:42:29;;;;;;;41.60;30.50;;;;;;;11.79;84.78;100062.18;124960;1296;99093;-74
2022/11/07 10:45:35;;;;;;;20.60;14.30;;;;;;;11.81;84.49;100066.86;125013;1313;99052;-74
2022/11/07 10:48:51;;;;;;;16.40;11.10;;;;;;;11.80;84.07;100064.95;124966;1313;98113;-74
2022/11/07 10:52:08;;;;;;;17.90;11.10;;;;;;;11.75;83.82;100063.52;124939;1299;98057;-73
2022/11/07 10:55:17;;;;;;;17.00;11.30;;;;;;;11.73;83.62;100059.51;124971;1313;98028;-72
2022/11/07 10:58:25;;;;;;;18.00;11.30;;;;;;;11.69;83.29;100059.73;124897;1296;98097;-73
2022/11/07 11:01:31;;;;;;;15.20;10.40;;;;;;;11.68;83.55;100058.61;125029;1296;98690;-73
2022/11/07 11:04:47;;;;;;;18.40;12.70;;;;;;;11.70;83.76;100061.73;124963;1306;98033;-75
2022/11/07 11:07:54;;;;;;;16.00;10.40;;;;;;;11.74;83.02;100064.58;125033;1297;98682;-73
2022/11/07 11:10:59;;;;;;;26.20;14.40;;;;;;;11.75;82.38;100062.68;125084;1304;98192;-74
2022/11/07 11:14:15;;;;;;;18.00;12.20;;;;;;;11.73;81.86;100064.16;124990;1296;98772;-73
2022/11/07 11:17:26;;;;;;;19.60;11.90;;;;;;;11.73;82.38;100060.24;124930;1306;98548;-73
2022/11/07 11:20:36;;;;;;;20.10;13.80;;;;;;;11.75;82.19;100053.03;125018;1298;98821;-73
2022/11/07 11:23:45;;;;;;;18.30;12.60;;;;;;;11.74;82.02;100056.60;124939;1313;99183;-73
2022/11/07 11:26:53;;;;;;;38.80;23.30;;;;;;;11.69;81.56;100059.71;125059;1297;98129;-73
2022/11/07 11:30:05;;;;;;;36.40;22.80;;;;;;;11.68;81.29;100064.28;125133;1289;99059;-74
2022/11/07 11:33:15;;;;;;;31.40;20.30;;;;;;;11.66;80.51;100065.27;124999;1299;98786;-75
2022/11/07 11:36:27;;;;;;;21.60;13.10;;;;;;;11.69;81.45;100065.24;125040;1306;99170;-73
2022/11/07 11:39:40;;;;;;;13.30;9.20;;;;;;;11.68;80.91;100064.81;124948;1289;99164;-73
2022/11/07 11:42:52;;;;;;;23.40;19.60;;;;;;;11.63;80.60;100059.36;124979;1305;99015;-74
2022/11/07 11:46:09;;;;;;;15.50;10.20;;;;;;;11.54;80.47;100058.85;124995;1302;98443;-72
2022/11/07 11:49:19;;;;;;;13.30;9.50;;;;;;;11.54;80.61;100068.16;124967;1296;98769;-74
2022/11/07 11:52:26;;;;;;;14.50;11.60;;;;;;;11.56;80.41;100067.33;125044;1306;98030;-73
2022/11/07 11:55:42;;;;;;;27.40;18.80;;;;;;;11.60;80.05;100064.30;124979;1305;98782;-74
2022/11/07 11:58:57;;;;;;;24.00;14.30;;;;;;;11.60;78.69;100065.20;125006;1313;98047;-74
2022/11/07 12:02:22;;;;;;;28.90;16.30;;;;;;;11.60;79.68;100070.91;125049;1305;99203;-73
2022/11/07 12:05:58;;;;;;;29.70;17.50;;;;;;;11.62;79.04;100071.75;125039;1312;99281;-74
2022/11/07 12:09:25;;;;;;;54.10;41.80;;;;;;;11.63;79.28;100071.66;124900;1305;98046;-78
2022/11/07 12:12:41;;;;;;;16.60;11.40;;;;;;;11.62;78.76;100076.40;124997;1305;99079;-77
2022/11/07 12:15:59;;;;;;;16.10;12.20;;;;;;;11.56;77.44;100077.35;125013;1295;98028;-77
2022/11/07 12:19:18;;;;;;;20.10;16.50;;;;;;;11.51;77.63;100075.57;125243;1290;98093;-80
2022/11/07 12:22:37;;;;;;;18.80;12.40;;;;;;;11.53;78.59;100073.90;125100;1296;98813;-76
2022/11/07 12:25:50;;;;;;;15.60;11.90;;;;;;;11.52;78.44;100073.67;125150;1297;98749;-78
2022/11/07 12:29:06;;;;;;;19.20;16.00;;;;;;;11.50;78.23;100075.87;125287;1297;98722;-78
2022/11/07 12:32:20;;;;;;;14.10;10.70;;;;;;;11.45;77.67;100079.92;125272;1289;99192;-78
2022/11/07 12:35:40;;;;;;;10.80;7.50;;;;;;;11.38;78.12;100080.98;125051;1296;98689;-78
2022/11/07 12:39:33;;;;;;;15.90;11.30;;;;;;;11.35;77.95;100080.27;125060;1305;98042;-80
2022/11/07 12:42:54;;;;;;;29.10;26.10;;;;;;;11.35;78.09;100083.08;124819;1312;99801;-77
2022/11/07 12:46:09;;;;;;;16.10;12.20;;;;;;;11.39;78.24;100083.29;124997;1306;98016;-78
2022/11/07 12:49:39;;;;;;;34.70;24.70;;;;;;;11.40;78.21;100082.39;124967;1306;98795;-78
2022/11/07 12:53:01;;;;;;;18.20;12.10;;;;;;;11.40;77.23;100088.84;124994;1296;98062;-78
2022/11/07 12:56:10;;;;;;;;;;;;;;;11.34;77.85;100093.02;125136;1299;98047;-78
2022/11/07 12:59:21;;;;;;;54.90;29.10;;;;;;;11.33;77.93;100098.20;124991;1296;98013;-78
2022/11/07 13:02:37;;;;;;;38.90;24.30;;;;;;;11.32;77.98;100097.16;125063;1306;99172;-78
2022/11/07 13:05:56;;;;;;;14.20;10.70;;;;;;;11.31;77.87;100094.73;124921;1289;99555;-78
2022/11/07 13:09:12;;;;;;;12.60;8.70;;;;;;;11.28;77.84;100097.40;125011;1306;98007;-78
2022/11/07 13:12:27;;;;;;;10.20;6.70;;;;;;;11.18;77.75;100107.33;125067;1296;98772;-81
2022/11/07 13:15:33;;;;;;;9.70;6.30;;;;;;;11.09;77.38;100104.41;124987;1296;99228;-78
2022/11/07 13:18:38;;;;;;;9.80;6.40;;;;;;;11.03;77.62;100109.31;125008;1306;99174;-78
2022/11/07 13:21:45;;;;;;;8.40;6.00;;;;;;;11.01;77.67;100107.38;125268;1299;98693;-78
2022/11/07 13:25:06;;;;;;;10.00;7.10;;;;;;;10.99;77.43;100108.78;125321;1302;98699;-78
2022/11/07 13:28:36;;;;;;;14.30;9.30;;;;;;;10.97;77.28;100106.16;125308;1299;99082;-78
2022/11/07 13:31:44;;;;;;;16.10;12.40;;;;;;;10.95;77.55;100115.20;125210;1296;98074;-78
2022/11/07 13:34:57;;;;;;;13.30;10.60;;;;;;;10.93;77.55;100120.09;125222;1296;99173;-80
2022/11/07 13:38:09;;;;;;;10.80;8.30;;;;;;;10.90;77.61;100124.00;125179;1296;98696;-79
2022/11/07 13:41:16;;;;;;;12.90;9.50;;;;;;;10.82;77.47;100129.89;125157;1299;99188;-78
2022/11/07 13:44:26;;;;;;;11.30;8.60;;;;;;;10.75;77.76;100126.98;125134;1289;99188;-79
2022/11/07 13:47:39;;;;;;;25.90;21.00;;;;;;;10.69;77.38;100131.48;125014;1297;99091;-77
2022/11/07 13:50:49;;;;;;;22.20;17.60;;;;;;;10.68;77.53;100130.03;125198;1295;98730;-78
2022/11/07 13:54:04;;;;;;;24.20;20.60;;;;;;;10.70;77.68;100134.97;125115;1297;98801;-78
2022/11/07 13:57:17;;;;;;;13.70;10.90;;;;;;;10.73;77.28;100136.89;125104;1304;98451;-79
2022/11/07 14:00:23;;;;;;;92.50;72.10;;;;;;;10.75;77.60;100139.96;125017;1297;98368;-80
2022/11/07 14:03:29;;;;;;;21.40;16.00;;;;;;;10.74;77.42;100142.86;124888;1305;98022;-78
2022/11/07 14:06:35;;;;;;;27.00;21.20;;;;;;;10.73;77.41;100148.89;125095;1297;98052;-80
2022/11/07 14:09:42;;;;;;;15.20;12.30;;;;;;;10.67;77.16;100146.11;124994;1298;98018;-77
2022/11/07 14:12:48;;;;;;;12.50;10.20;;;;;;;10.62;77.62;100146.45;125129;1296;98016;-77
2022/11/07 14:15:56;;;;;;;11.50;8.70;;;;;;;10.55;77.52;100146.43;125067;1313;99084;-77
2022/11/07 14:19:05;;;;;;;12.70;8.40;;;;;;;10.49;77.38;100146.96;125266;1289;98052;-77
2022/11/07 14:22:23;;;;;;;173.70;72.90;;;;;;;10.44;77.66;100153.02;125185;1306;98064;-78
2022/11/07 14:25:32;;;;;;;420.40;137.20;;;;;;;10.40;78.04;100151.99;125035;1306;98460;-74
2022/11/07 14:28:38;;;;;;;560.20;276.00;;;;;;;10.41;77.85;100151.93;125060;1299;99310;-72